sensor_id;sensor_type;location;lat;lon;timestamp;pressure;altitude;pressure_sealevel;temperature;humidity
60371;BME280;48550;40.588;49.684;2023-05-01T00:00:54;101051.00;;;14.51;100.00
60371;BME280;48550;40.588;49.684;2023-05-01T00:03:20;101056.41;;;14.51;100.00
60371;BME280;48550;40.588;49.684;2023-05-01T00:05:46;101058.28;;;14.51;100.00
60371;BME280;48550;40.588;49.684;2023-05-01T00:08:12;101047.47;;;14.51;100.00
60371;BME280;48550;40.588;49.684;2023-05-01T00:10:38;101047.16;;;14.47;100.00
60371;BME280;48550;40.588;49.684;2023-05-01T00:13:04;101055.03;;;14.49;100.00
60371;BME280;48550;40.588;49.684;2023-05-01T00:15:31;101062.06;;;14.50;100.00
60371;BME280;48550;40.588;49.684;2023-05-01T00:17:57;101069.59;;;14.48;100.00
60371;BME280;48550;40.588;49.684;2023-05-01T00:20:29;101076.63;;;14.49;100.00
60371;BME280;48550;40.588;49.684;2023-05-01T00:22:55;101107.28;;;14.59;100.00
60371;BME280;48550;40.588;49.684;2023-05-01T00:25:22;101125.38;;;14.59;100.00
60371;BME280;48550;40.588;49.684;2023-05-01T00:27:48;101135.31;;;14.53;100.00
60371;BME280;48550;40.588;49.684;2023-05-01T00:30:13;101135.81;;;14.50;100.00
60371;BME280;48550;40.588;49.684;2023-05-01T00:32:39;101142.50;;;14.48;100.00
60371;BME280;48550;40.588;49.684;2023-05-01T00:35:06;101152.50;;;14.47;100.00
60371;BME280;48550;40.588;49.684;2023-05-01T00:37:31;101160.69;;;14.52;100.00
60371;BME280;48550;40.588;49.684;2023-05-01T00:39:57;101143.09;;;14.50;100.00
60371;BME280;48550;40.588;49.684;2023-05-01T00:42:23;101129.16;;;14.41;100.00
60371;BME280;48550;40.588;49.684;2023-05-01T00:44:48;101127.69;;;14.34;100.00
60371;BME280;48550;40.588;49.684;2023-05-01T00:47:14;101125.00;;;14.34;100.00
60371;BME280;48550;40.588;49.684;2023-05-01T00:49:41;101120.66;;;14.32;100.00
60371;BME280;48550;40.588;49.684;2023-05-01T00:52:08;101112.97;;;14.24;100.00
60371;BME280;48550;40.588;49.684;2023-05-01T00:54:36;101097.03;;;14.23;100.00
60371;BME280;48550;40.588;49.684;2023-05-01T00:57:02;101089.09;;;14.16;100.00
60371;BME280;48550;40.588;49.684;2023-05-01T00:59:28;101085.84;;;14.14;100.00
60371;BME280;48550;40.588;49.684;2023-05-01T01:01:54;101092.28;;;14.13;100.00
60371;BME280;48550;40.588;49.684;2023-05-01T01:04:20;101103.31;;;14.12;100.00
60371;BME280;48550;40.588;49.684;2023-05-01T01:07:12;101098.16;;;14.10;100.00
60371;BME280;48550;40.588;49.684;2023-05-01T01:10:12;101096.28;;;14.11;100.00
60371;BME280;48550;40.588;49.684;2023-05-01T01:19:22;101113.78;;;14.08;100.00
60371;BME280;48550;40.588;49.684;2023-05-01T01:21:16;101127.03;;;14.10;100.00
60371;BME280;48550;40.588;49.684;2023-05-01T01:35:06;101073.38;;;14.30;100.00
60371;BME280;48550;40.588;49.684;2023-05-01T01:38:05;101083.44;;;14.35;100.00
60371;BME280;48550;40.588;49.684;2023-05-01T01:43:16;101095.47;;;14.44;100.00
60371;BME280;48550;40.588;49.684;2023-05-01T01:45:46;101078.75;;;14.47;100.00
60371;BME280;48550;40.588;49.684;2023-05-01T01:48:16;101076.94;;;14.52;100.00
60371;BME280;48550;40.588;49.684;2023-05-01T01:50:44;101062.69;;;14.57;100.00
60371;BME280;48550;40.588;49.684;2023-05-01T01:53:15;101051.94;;;14.62;100.00
60371;BME280;48550;40.588;49.684;2023-05-01T01:55:43;101036.88;;;14.66;100.00
60371;BME280;48550;40.588;49.684;2023-05-01T01:58:11;101054.22;;;14.70;100.00
60371;BME280;48550;40.588;49.684;2023-05-01T02:00:39;101041.78;;;14.69;100.00
60371;BME280;48550;40.588;49.684;2023-05-01T02:03:08;101053.72;;;14.73;100.00
60371;BME280;48550;40.588;49.684;2023-05-01T02:05:35;101045.59;;;14.73;100.00
60371;BME280;48550;40.588;49.684;2023-05-01T02:08:01;101056.97;;;14.75;100.00
60371;BME280;48550;40.588;49.684;2023-05-01T02:10:29;101047.53;;;14.78;100.00
60371;BME280;48550;40.588;49.684;2023-05-01T02:12:57;101053.75;;;14.78;100.00
60371;BME280;48550;40.588;49.684;2023-05-01T02:15:24;101057.59;;;14.82;100.00
60371;BME280;48550;40.588;49.684;2023-05-01T02:17:52;101061.94;;;14.83;100.00
60371;BME280;48550;40.588;49.684;2023-05-01T02:20:20;101066.59;;;14.88;100.00
60371;BME280;48550;40.588;49.684;2023-05-01T02:22:47;101071.00;;;14.94;100.00
60371;BME280;48550;40.588;49.684;2023-05-01T02:25:13;101079.41;;;14.98;100.00
60371;BME280;48550;40.588;49.684;2023-05-01T02:27:47;101072.94;;;14.99;100.00
60371;BME280;48550;40.588;49.684;2023-05-01T02:30:16;101080.84;;;15.05;100.00
60371;BME280;48550;40.588;49.684;2023-05-01T02:32:43;101076.06;;;15.12;100.00
60371;BME280;48550;40.588;49.684;2023-05-01T02:35:09;101064.13;;;15.35;100.00
60371;BME280;48550;40.588;49.684;2023-05-01T02:37:36;101058.44;;;15.58;100.00
60371;BME280;48550;40.588;49.684;2023-05-01T02:40:02;101056.69;;;16.11;100.00
60371;BME280;48550;40.588;49.684;2023-05-01T02:42:29;101052.34;;;16.10;100.00
60371;BME280;48550;40.588;49.684;2023-05-01T02:44:59;101060.41;;;16.00;100.00
60371;BME280;48550;40.588;49.684;2023-05-01T02:47:26;101071.88;;;16.17;100.00
60371;BME280;48550;40.588;49.684;2023-05-01T02:49:53;101065.31;;;16.45;100.00
60371;BME280;48550;40.588;49.684;2023-05-01T02:52:20;101048.75;;;16.42;100.00
60371;BME280;48550;40.588;49.684;2023-05-01T02:54:50;101028.75;;;16.48;100.00
60371;BME280;48550;40.588;49.684;2023-05-01T02:57:17;101037.53;;;16.70;100.00
60371;BME280;48550;40.588;49.684;2023-05-01T02:59:42;101042.75;;;16.87;100.00
60371;BME280;48550;40.588;49.684;2023-05-01T03:02:08;101056.97;;;17.40;100.00
60371;BME280;48550;40.588;49.684;2023-05-01T03:04:34;101058.38;;;18.03;100.00
60371;BME280;48550;40.588;49.684;2023-05-01T03:07:00;101061.03;;;18.34;100.00
60371;BME280;48550;40.588;49.684;2023-05-01T03:09:25;101050.47;;;19.02;100.00
60371;BME280;48550;40.588;49.684;2023-05-01T03:11:51;101048.50;;;19.57;100.00
60371;BME280;48550;40.588;49.684;2023-05-01T03:14:17;101064.13;;;19.41;100.00
60371;BME280;48550;40.588;49.684;2023-05-01T03:16:42;101064.81;;;20.73;100.00
60371;BME280;48550;40.588;49.684;2023-05-01T03:19:08;101064.84;;;20.20;100.00
60371;BME280;48550;40.588;49.684;2023-05-01T03:21:35;101068.44;;;20.44;100.00
60371;BME280;48550;40.588;49.684;2023-05-01T03:24:01;101066.13;;;20.99;100.00
60371;BME280;48550;40.588;49.684;2023-05-01T03:26:27;101060.03;;;20.41;100.00
60371;BME280;48550;40.588;49.684;2023-05-01T03:28:54;101050.22;;;19.82;100.00
60371;BME280;48550;40.588;49.684;2023-05-01T03:31:20;101050.47;;;20.14;100.00
60371;BME280;48550;40.588;49.684;2023-05-01T03:33:46;101049.44;;;20.82;100.00
60371;BME280;48550;40.588;49.684;2023-05-01T03:36:12;101053.59;;;21.73;100.00
60371;BME280;48550;40.588;49.684;2023-05-01T03:38:38;101053.81;;;22.23;100.00
60371;BME280;48550;40.588;49.684;2023-05-01T03:41:04;101061.78;;;22.06;100.00
60371;BME280;48550;40.588;49.684;2023-05-01T03:43:30;101067.00;;;20.23;100.00
60371;BME280;48550;40.588;49.684;2023-05-01T03:45:57;101060.28;;;19.47;100.00
60371;BME280;48550;40.588;49.684;2023-05-01T03:48:22;101064.13;;;19.80;100.00
60371;BME280;48550;40.588;49.684;2023-05-01T03:50:49;101056.69;;;19.57;100.00
60371;BME280;48550;40.588;49.684;2023-05-01T03:53:15;101056.81;;;19.76;100.00
60371;BME280;48550;40.588;49.684;2023-05-01T03:55:42;101055.28;;;19.93;100.00
60371;BME280;48550;40.588;49.684;2023-05-01T03:58:08;101046.44;;;19.39;100.00
60371;BME280;48550;40.588;49.684;2023-05-01T04:00:37;101049.63;;;19.51;100.00
60371;BME280;48550;40.588;49.684;2023-05-01T04:03:03;101045.56;;;19.53;100.00
60371;BME280;48550;40.588;49.684;2023-05-01T04:05:30;101044.09;;;19.66;100.00
60371;BME280;48550;40.588;49.684;2023-05-01T04:07:56;101047.00;;;20.04;100.00
60371;BME280;48550;40.588;49.684;2023-05-01T04:10:22;101039.22;;;20.69;100.00
60371;BME280;48550;40.588;49.684;2023-05-01T04:12:47;101030.47;;;20.72;100.00
60371;BME280;48550;40.588;49.684;2023-05-01T04:15:13;101021.50;;;21.46;100.00
60371;BME280;48550;40.588;49.684;2023-05-01T04:17:39;101032.16;;;20.20;100.00
60371;BME280;48550;40.588;49.684;2023-05-01T04:20:05;101025.94;;;19.51;100.00
60371;BME280;48550;40.588;49.684;2023-05-01T04:22:32;101036.50;;;19.63;100.00
60371;BME280;48550;40.588;49.684;2023-05-01T04:24:57;101013.53;;;19.35;100.00
60371;BME280;48550;40.588;49.684;2023-05-01T04:27:23;101036.50;;;19.19;100.00
60371;BME280;48550;40.588;49.684;2023-05-01T04:29:50;101009.56;;;19.17;100.00
60371;BME280;48550;40.588;49.684;2023-05-01T04:32:15;101030.22;;;19.18;100.00
60371;BME280;48550;40.588;49.684;2023-05-01T04:34:42;101028.44;;;19.03;100.00
60371;BME280;48550;40.588;49.684;2023-05-01T04:37:09;101037.91;;;19.50;100.00
60371;BME280;48550;40.588;49.684;2023-05-01T04:39:34;101021.28;;;20.44;100.00
60371;BME280;48550;40.588;49.684;2023-05-01T04:42:01;101046.91;;;20.67;100.00
60371;BME280;48550;40.588;49.684;2023-05-01T04:44:27;101037.00;;;20.94;100.00
60371;BME280;48550;40.588;49.684;2023-05-01T04:46:53;101043.09;;;21.80;94.00
60371;BME280;48550;40.588;49.684;2023-05-01T04:49:21;101067.81;;;21.89;88.80
60371;BME280;48550;40.588;49.684;2023-05-01T04:51:46;101062.81;;;22.10;85.54
60371;BME280;48550;40.588;49.684;2023-05-01T04:54:12;101071.94;;;22.19;84.89
60371;BME280;48550;40.588;49.684;2023-05-01T04:56:38;101067.09;;;22.98;78.65
60371;BME280;48550;40.588;49.684;2023-05-01T04:59:04;101070.53;;;23.18;77.51
60371;BME280;48550;40.588;49.684;2023-05-01T05:01:29;101077.91;;;23.53;70.30
60371;BME280;48550;40.588;49.684;2023-05-01T05:03:55;101074.53;;;22.84;77.67
60371;BME280;48550;40.588;49.684;2023-05-01T05:06:21;101073.81;;;22.51;79.60
60371;BME280;48550;40.588;49.684;2023-05-01T05:08:47;101081.91;;;22.42;83.73
60371;BME280;48550;40.588;49.684;2023-05-01T05:11:17;101083.53;;;22.57;81.08
60371;BME280;48550;40.588;49.684;2023-05-01T05:13:44;101071.38;;;21.71;89.69
60371;BME280;48550;40.588;49.684;2023-05-01T05:16:10;101062.41;;;21.33;97.52
60371;BME280;48550;40.588;49.684;2023-05-01T05:18:36;101058.09;;;21.08;98.66
60371;BME280;48550;40.588;49.684;2023-05-01T05:21:04;101064.53;;;20.74;100.00
60371;BME280;48550;40.588;49.684;2023-05-01T05:23:30;101054.03;;;21.05;98.60
60371;BME280;48550;40.588;49.684;2023-05-01T05:25:55;101055.09;;;21.28;98.19
60371;BME280;48550;40.588;49.684;2023-05-01T05:28:28;101055.25;;;21.37;97.50
60371;BME280;48550;40.588;49.684;2023-05-01T05:30:55;101054.63;;;21.77;87.86
60371;BME280;48550;40.588;49.684;2023-05-01T05:33:21;101058.28;;;21.35;97.61
60371;BME280;48550;40.588;49.684;2023-05-01T05:35:52;101051.47;;;21.51;92.66
60371;BME280;48550;40.588;49.684;2023-05-01T05:38:18;101061.13;;;21.06;99.68
60371;BME280;48550;40.588;49.684;2023-05-01T05:40:43;101025.34;;;20.46;100.00
60371;BME280;48550;40.588;49.684;2023-05-01T05:43:09;101049.78;;;20.27;100.00
60371;BME280;48550;40.588;49.684;2023-05-01T05:45:35;101051.03;;;20.40;100.00
60371;BME280;48550;40.588;49.684;2023-05-01T05:48:02;101043.19;;;20.57;100.00
60371;BME280;48550;40.588;49.684;2023-05-01T05:50:27;101049.00;;;19.93;100.00
60371;BME280;48550;40.588;49.684;2023-05-01T05:52:54;101045.75;;;19.91;100.00
60371;BME280;48550;40.588;49.684;2023-05-01T05:55:20;101038.50;;;19.47;100.00
60371;BME280;48550;40.588;49.684;2023-05-01T05:57:46;101049.94;;;19.00;100.00
60371;BME280;48550;40.588;49.684;2023-05-01T06:00:12;101050.19;;;19.48;100.00
60371;BME280;48550;40.588;49.684;2023-05-01T06:02:38;101053.06;;;19.95;100.00
60371;BME280;48550;40.588;49.684;2023-05-01T06:05:04;101046.22;;;19.30;100.00
60371;BME280;48550;40.588;49.684;2023-05-01T06:07:30;101060.38;;;19.27;100.00
60371;BME280;48550;40.588;49.684;2023-05-01T06:09:56;101058.63;;;19.85;100.00
60371;BME280;48550;40.588;49.684;2023-05-01T06:12:32;101063.66;;;19.68;100.00
60371;BME280;48550;40.588;49.684;2023-05-01T06:14:58;101060.41;;;19.66;100.00
60371;BME280;48550;40.588;49.684;2023-05-01T06:17:24;101069.66;;;19.70;100.00
60371;BME280;48550;40.588;49.684;2023-05-01T06:19:50;101072.72;;;19.92;100.00
60371;BME280;48550;40.588;49.684;2023-05-01T06:22:20;101070.41;;;19.31;100.00
60371;BME280;48550;40.588;49.684;2023-05-01T06:24:45;101088.47;;;19.66;100.00
60371;BME280;48550;40.588;49.684;2023-05-01T06:27:11;101064.13;;;19.41;100.00
60371;BME280;48550;40.588;49.684;2023-05-01T06:29:37;101080.81;;;19.24;100.00
60371;BME280;48550;40.588;49.684;2023-05-01T06:32:03;101108.31;;;19.23;100.00
60371;BME280;48550;40.588;49.684;2023-05-01T06:34:29;101087.53;;;19.81;100.00
60371;BME280;48550;40.588;49.684;2023-05-01T06:36:55;101084.03;;;20.05;100.00
60371;BME280;48550;40.588;49.684;2023-05-01T06:39:21;101091.44;;;19.70;100.00
60371;BME280;48550;40.588;49.684;2023-05-01T06:41:47;101096.50;;;19.82;100.00
60371;BME280;48550;40.588;49.684;2023-05-01T06:44:14;101101.09;;;19.86;100.00
60371;BME280;48550;40.588;49.684;2023-05-01T06:46:40;101109.38;;;20.05;100.00
60371;BME280;48550;40.588;49.684;2023-05-01T06:49:06;101117.91;;;20.56;95.54
60371;BME280;48550;40.588;49.684;2023-05-01T06:51:32;101123.66;;;21.03;87.52
60371;BME280;48550;40.588;49.684;2023-05-01T06:53:57;101125.69;;;21.16;87.29
60371;BME280;48550;40.588;49.684;2023-05-01T06:56:23;101112.66;;;21.32;80.10
60371;BME280;48550;40.588;49.684;2023-05-01T06:58:49;101126.00;;;20.09;100.00
60371;BME280;48550;40.588;49.684;2023-05-01T07:01:15;101125.81;;;19.61;100.00
60371;BME280;48550;40.588;49.684;2023-05-01T07:03:41;101130.97;;;19.62;100.00
60371;BME280;48550;40.588;49.684;2023-05-01T07:06:07;101134.84;;;18.87;100.00
60371;BME280;48550;40.588;49.684;2023-05-01T07:08:33;101137.81;;;18.95;100.00
60371;BME280;48550;40.588;49.684;2023-05-01T07:10:59;101143.41;;;19.19;100.00
60371;BME280;48550;40.588;49.684;2023-05-01T07:13:25;101147.91;;;19.49;100.00
60371;BME280;48550;40.588;49.684;2023-05-01T07:15:51;101148.47;;;19.90;100.00
60371;BME280;48550;40.588;49.684;2023-05-01T07:18:18;101160.50;;;19.40;100.00
60371;BME280;48550;40.588;49.684;2023-05-01T07:20:43;101150.94;;;19.43;100.00
60371;BME280;48550;40.588;49.684;2023-05-01T07:23:10;101160.31;;;19.16;100.00
60371;BME280;48550;40.588;49.684;2023-05-01T07:25:36;101168.34;;;20.59;100.00
60371;BME280;48550;40.588;49.684;2023-05-01T07:28:02;101168.97;;;21.28;90.20
60371;BME280;48550;40.588;49.684;2023-05-01T07:30:32;101174.13;;;20.81;94.44
60371;BME280;48550;40.588;49.684;2023-05-01T07:32:58;101169.88;;;20.07;99.65
60371;BME280;48550;40.588;49.684;2023-05-01T07:35:24;101161.91;;;20.16;100.00
60371;BME280;48550;40.588;49.684;2023-05-01T07:37:50;101165.88;;;18.86;100.00
60371;BME280;48550;40.588;49.684;2023-05-01T07:40:16;101172.44;;;18.34;100.00
60371;BME280;48550;40.588;49.684;2023-05-01T07:42:42;101158.34;;;18.01;100.00
60371;BME280;48550;40.588;49.684;2023-05-01T07:45:08;101166.09;;;17.57;100.00
60371;BME280;48550;40.588;49.684;2023-05-01T07:47:34;101176.69;;;17.54;100.00
60371;BME280;48550;40.588;49.684;2023-05-01T07:50:01;101163.09;;;17.54;100.00
60371;BME280;48550;40.588;49.684;2023-05-01T07:52:27;101169.53;;;17.27;100.00
60371;BME280;48550;40.588;49.684;2023-05-01T07:54:53;101184.13;;;17.11;100.00
60371;BME280;48550;40.588;49.684;2023-05-01T07:57:19;101176.59;;;16.76;100.00
60371;BME280;48550;40.588;49.684;2023-05-01T07:59:45;101182.72;;;16.61;100.00
60371;BME280;48550;40.588;49.684;2023-05-01T08:02:11;101191.59;;;16.51;100.00
60371;BME280;48550;40.588;49.684;2023-05-01T08:04:38;101201.00;;;17.23;100.00
60371;BME280;48550;40.588;49.684;2023-05-01T08:07:04;101205.94;;;16.84;100.00
60371;BME280;48550;40.588;49.684;2023-05-01T08:09:30;101196.53;;;17.02;100.00
60371;BME280;48550;40.588;49.684;2023-05-01T08:11:55;101180.22;;;16.92;100.00
60371;BME280;48550;40.588;49.684;2023-05-01T08:14:21;101193.28;;;17.05;100.00
60371;BME280;48550;40.588;49.684;2023-05-01T08:16:47;101193.34;;;17.10;100.00
60371;BME280;48550;40.588;49.684;2023-05-01T08:19:18;101180.25;;;16.97;100.00
60371;BME280;48550;40.588;49.684;2023-05-01T08:21:44;101170.75;;;16.99;100.00
60371;BME280;48550;40.588;49.684;2023-05-01T08:24:09;101169.38;;;16.92;100.00
60371;BME280;48550;40.588;49.684;2023-05-01T08:26:36;101165.06;;;17.01;100.00
60371;BME280;48550;40.588;49.684;2023-05-01T08:29:01;101167.06;;;17.15;100.00
60371;BME280;48550;40.588;49.684;2023-05-01T08:31:27;101173.75;;;17.03;100.00
60371;BME280;48550;40.588;49.684;2023-05-01T08:33:53;101168.44;;;16.71;100.00
60371;BME280;48550;40.588;49.684;2023-05-01T08:36:19;101175.22;;;16.73;100.00
60371;BME280;48550;40.588;49.684;2023-05-01T08:38:45;101161.38;;;16.70;100.00
60371;BME280;48550;40.588;49.684;2023-05-01T08:41:15;101175.66;;;16.60;100.00
60371;BME280;48550;40.588;49.684;2023-05-01T08:43:45;101173.84;;;16.66;100.00
60371;BME280;48550;40.588;49.684;2023-05-01T08:46:11;101185.47;;;16.34;100.00
60371;BME280;48550;40.588;49.684;2023-05-01T08:48:41;101187.19;;;16.40;100.00
60371;BME280;48550;40.588;49.684;2023-05-01T08:51:09;101182.88;;;16.12;100.00
60371;BME280;48550;40.588;49.684;2023-05-01T08:53:36;101183.31;;;15.99;100.00
60371;BME280;48550;40.588;49.684;2023-05-01T08:56:05;101195.47;;;15.97;100.00
60371;BME280;48550;40.588;49.684;2023-05-01T08:58:32;101192.28;;;16.05;100.00
60371;BME280;48550;40.588;49.684;2023-05-01T09:01:01;101190.31;;;15.95;100.00
60371;BME280;48550;40.588;49.684;2023-05-01T09:03:30;101183.97;;;15.84;100.00
60371;BME280;48550;40.588;49.684;2023-05-01T09:05:57;101173.41;;;15.83;100.00
60371;BME280;48550;40.588;49.684;2023-05-01T09:08:23;101177.34;;;15.97;100.00
60371;BME280;48550;40.588;49.684;2023-05-01T09:10:50;101183.72;;;15.86;100.00
60371;BME280;48550;40.588;49.684;2023-05-01T09:13:18;101163.88;;;16.07;100.00
60371;BME280;48550;40.588;49.684;2023-05-01T09:15:43;101181.63;;;16.25;100.00
60371;BME280;48550;40.588;49.684;2023-05-01T09:18:10;101162.63;;;16.20;100.00
60371;BME280;48550;40.588;49.684;2023-05-01T09:20:36;101195.56;;;16.07;100.00
60371;BME280;48550;40.588;49.684;2023-05-01T09:23:03;101175.41;;;15.93;100.00
60371;BME280;48550;40.588;49.684;2023-05-01T09:25:28;101173.97;;;16.17;100.00
60371;BME280;48550;40.588;49.684;2023-05-01T09:27:55;101180.31;;;16.33;100.00
60371;BME280;48550;40.588;49.684;2023-05-01T09:30:31;101188.38;;;16.23;100.00
60371;BME280;48550;40.588;49.684;2023-05-01T09:33:08;101182.59;;;16.41;100.00
60371;BME280;48550;40.588;49.684;2023-05-01T09:35:52;101191.38;;;16.58;100.00
60371;BME280;48550;40.588;49.684;2023-05-01T09:38:23;101194.53;;;16.45;100.00
60371;BME280;48550;40.588;49.684;2023-05-01T09:40:49;101192.44;;;16.57;100.00
60371;BME280;48550;40.588;49.684;2023-05-01T09:43:25;101193.28;;;16.26;100.00
60371;BME280;48550;40.588;49.684;2023-05-01T09:46:02;101170.94;;;16.08;100.00
60371;BME280;48550;40.588;49.684;2023-05-01T09:48:30;101183.84;;;16.33;100.00
60371;BME280;48550;40.588;49.684;2023-05-01T09:50:56;101207.13;;;16.61;100.00
60371;BME280;48550;40.588;49.684;2023-05-01T09:53:36;101195.38;;;16.88;100.00
60371;BME280;48550;40.588;49.684;2023-05-01T09:56:02;101213.06;;;16.58;100.00
60371;BME280;48550;40.588;49.684;2023-05-01T09:58:28;101208.19;;;16.28;100.00
60371;BME280;48550;40.588;49.684;2023-05-01T10:00:54;101227.19;;;16.01;100.00
60371;BME280;48550;40.588;49.684;2023-05-01T10:03:20;101229.06;;;15.74;100.00
60371;BME280;48550;40.588;49.684;2023-05-01T10:05:46;101222.22;;;15.66;100.00
60371;BME280;48550;40.588;49.684;2023-05-01T10:08:12;101229.13;;;15.79;100.00
60371;BME280;48550;40.588;49.684;2023-05-01T10:10:40;101235.31;;;16.01;100.00
60371;BME280;48550;40.588;49.684;2023-05-01T10:13:17;101237.19;;;15.74;100.00
60371;BME280;48550;40.588;49.684;2023-05-01T10:15:45;101247.38;;;15.88;100.00
60371;BME280;48550;40.588;49.684;2023-05-01T10:18:11;101256.84;;;15.47;100.00
60371;BME280;48550;40.588;49.684;2023-05-01T10:20:38;101280.25;;;16.02;100.00
60371;BME280;48550;40.588;49.684;2023-05-01T10:23:05;101278.63;;;16.28;100.00
60371;BME280;48550;40.588;49.684;2023-05-01T10:25:31;101281.81;;;15.71;100.00
60371;BME280;48550;40.588;49.684;2023-05-01T10:27:58;101258.69;;;15.85;100.00
60371;BME280;48550;40.588;49.684;2023-05-01T10:30:28;101252.94;;;15.38;100.00
60371;BME280;48550;40.588;49.684;2023-05-01T10:32:57;101219.25;;;15.24;100.00
60371;BME280;48550;40.588;49.684;2023-05-01T10:35:33;101180.06;;;15.05;100.00
60371;BME280;48550;40.588;49.684;2023-05-01T10:38:25;101127.06;;;15.04;100.00
60371;BME280;48550;40.588;49.684;2023-05-01T10:40:51;101089.66;;;15.17;100.00
60371;BME280;48550;40.588;49.684;2023-05-01T10:43:24;101056.19;;;15.23;100.00
60371;BME280;48550;40.588;49.684;2023-05-01T10:45:53;101052.66;;;15.77;100.00
60371;BME280;48550;40.588;49.684;2023-05-01T10:51:22;101081.69;;;15.60;100.00
60371;BME280;48550;40.588;49.684;2023-05-01T10:56:40;101167.66;;;16.06;100.00
60371;BME280;48550;40.588;49.684;2023-05-01T10:59:07;101179.41;;;16.17;100.00
60371;BME280;48550;40.588;49.684;2023-05-01T11:01:38;101175.09;;;16.21;100.00
60371;BME280;48550;40.588;49.684;2023-05-01T11:04:50;101185.38;;;16.51;100.00
60371;BME280;48550;40.588;49.684;2023-05-01T11:09:54;101212.22;;;16.26;100.00
60371;BME280;48550;40.588;49.684;2023-05-01T11:15:06;101205.56;;;16.70;100.00
60371;BME280;48550;40.588;49.684;2023-05-01T11:20:08;101189.78;;;16.62;100.00
60371;BME280;48550;40.588;49.684;2023-05-01T11:22:35;101177.63;;;16.33;100.00
60371;BME280;48550;40.588;49.684;2023-05-01T11:25:02;101164.78;;;16.55;100.00
60371;BME280;48550;40.588;49.684;2023-05-01T11:27:30;101148.81;;;16.21;100.00
60371;BME280;48550;40.588;49.684;2023-05-01T11:29:59;101147.19;;;16.20;100.00
60371;BME280;48550;40.588;49.684;2023-05-01T11:32:28;101136.53;;;16.09;100.00
60371;BME280;48550;40.588;49.684;2023-05-01T11:34:57;101129.69;;;15.96;100.00
60371;BME280;48550;40.588;49.684;2023-05-01T11:37:46;101138.91;;;16.00;100.00
60371;BME280;48550;40.588;49.684;2023-05-01T11:40:24;101141.28;;;16.29;100.00
60371;BME280;48550;40.588;49.684;2023-05-01T11:42:56;101130.53;;;16.02;100.00
60371;BME280;48550;40.588;49.684;2023-05-01T11:45:24;101131.28;;;15.92;100.00
60371;BME280;48550;40.588;49.684;2023-05-01T11:47:50;101109.16;;;16.05;100.00
60371;BME280;48550;40.588;49.684;2023-05-01T11:50:16;101104.34;;;16.12;100.00
60371;BME280;48550;40.588;49.684;2023-05-01T11:52:46;101092.47;;;16.18;100.00
60371;BME280;48550;40.588;49.684;2023-05-01T11:55:18;101105.31;;;15.96;100.00
60371;BME280;48550;40.588;49.684;2023-05-01T11:57:52;101132.06;;;16.25;100.00
60371;BME280;48550;40.588;49.684;2023-05-01T12:00:28;101130.03;;;16.42;100.00
60371;BME280;48550;40.588;49.684;2023-05-01T12:02:59;101082.72;;;16.17;100.00
60371;BME280;48550;40.588;49.684;2023-05-01T12:05:27;101094.31;;;15.76;100.00
60371;BME280;48550;40.588;49.684;2023-05-01T12:08:20;101115.28;;;15.91;100.00
60371;BME280;48550;40.588;49.684;2023-05-01T12:10:46;101133.06;;;15.81;100.00
60371;BME280;48550;40.588;49.684;2023-05-01T12:13:13;101131.66;;;15.74;100.00
60371;BME280;48550;40.588;49.684;2023-05-01T12:15:44;101154.69;;;15.76;100.00
60371;BME280;48550;40.588;49.684;2023-05-01T12:18:11;101170.03;;;15.71;100.00
60371;BME280;48550;40.588;49.684;2023-05-01T12:20:45;101181.59;;;15.88;100.00
60371;BME280;48550;40.588;49.684;2023-05-01T12:23:38;101205.78;;;16.00;100.00
60371;BME280;48550;40.588;49.684;2023-05-01T12:26:19;101233.53;;;15.85;100.00
60371;BME280;48550;40.588;49.684;2023-05-01T12:31:23;101206.88;;;15.72;100.00
60371;BME280;48550;40.588;49.684;2023-05-01T12:34:00;101192.00;;;15.74;100.00
60371;BME280;48550;40.588;49.684;2023-05-01T12:36:27;101186.53;;;15.69;100.00
60371;BME280;48550;40.588;49.684;2023-05-01T12:41:43;101148.84;;;15.41;100.00
60371;BME280;48550;40.588;49.684;2023-05-01T12:44:16;101151.00;;;15.39;100.00
60371;BME280;48550;40.588;49.684;2023-05-01T12:46:46;101180.88;;;15.27;100.00
60371;BME280;48550;40.588;49.684;2023-05-01T12:49:18;101187.91;;;15.28;100.00
60371;BME280;48550;40.588;49.684;2023-05-01T12:51:46;101200.81;;;15.21;100.00
60371;BME280;48550;40.588;49.684;2023-05-01T12:54:36;101189.75;;;15.22;100.00
60371;BME280;48550;40.588;49.684;2023-05-01T12:57:10;101181.00;;;15.15;100.00
60371;BME280;48550;40.588;49.684;2023-05-01T12:59:42;101178.31;;;15.15;100.00
60371;BME280;48550;40.588;49.684;2023-05-01T13:02:10;101177.47;;;15.15;100.00
60371;BME280;48550;40.588;49.684;2023-05-01T13:04:37;101156.94;;;15.14;100.00
60371;BME280;48550;40.588;49.684;2023-05-01T13:07:11;101158.19;;;15.06;100.00
60371;BME280;48550;40.588;49.684;2023-05-01T13:09:37;101160.00;;;15.01;100.00
60371;BME280;48550;40.588;49.684;2023-05-01T13:12:04;101153.16;;;14.93;100.00
60371;BME280;48550;40.588;49.684;2023-05-01T13:14:40;101192.00;;;14.87;100.00